WEATHER/FLIGHT PLANNING

Hattiesburg Radar

 

 

 

 

Weather Links

Flight Planning Links

 

METAR

2014/10/25 03:53 KHBG 250353Z AUTO 00000KT 10SM CLR 11/09 A3011 RMK AO2 SLP195 T01060094

TAF

2014/10/24 18:21 TAF KHBG 241720Z 2418/2518 35006KT P6SM SKC FM250900 00000KT 4SM BR SKC FM251400 35005KT P6SM SKC